sensor_id;sensor_type;location;lat;lon;timestamp;temperature;humidity
40822;DHT22;26542;50.836;5.356;2022-10-20T00:01:27;12.50;99.90
40822;DHT22;26542;50.836;5.356;2022-10-20T00:03:54;12.40;99.90
40822;DHT22;26542;50.836;5.356;2022-10-20T00:06:25;12.40;99.90
40822;DHT22;26542;50.836;5.356;2022-10-20T00:08:52;12.40;99.90
40822;DHT22;26542;50.836;5.356;2022-10-20T00:11:19;12.40;99.90
40822;DHT22;26542;50.836;5.356;2022-10-20T00:13:46;12.30;99.90
40822;DHT22;26542;50.836;5.356;2022-10-20T00:16:13;12.30;99.90
40822;DHT22;26542;50.836;5.356;2022-10-20T00:18:39;12.20;99.90
40822;DHT22;26542;50.836;5.356;2022-10-20T00:21:12;12.20;99.90
40822;DHT22;26542;50.836;5.356;2022-10-20T00:23:38;12.30;99.90
40822;DHT22;26542;50.836;5.356;2022-10-20T00:26:10;12.20;99.90
40822;DHT22;26542;50.836;5.356;2022-10-20T00:28:36;12.10;99.90
40822;DHT22;26542;50.836;5.356;2022-10-20T00:31:04;12.10;99.90
40822;DHT22;26542;50.836;5.356;2022-10-20T00:33:30;12.00;99.90
40822;DHT22;26542;50.836;5.356;2022-10-20T00:36:05;12.10;99.90
40822;DHT22;26542;50.836;5.356;2022-10-20T00:38:31;12.10;99.90
40822;DHT22;26542;50.836;5.356;2022-10-20T00:40:57;12.10;99.90
40822;DHT22;26542;50.836;5.356;2022-10-20T00:43:44;12.10;99.90
40822;DHT22;26542;50.836;5.356;2022-10-20T00:46:14;12.10;99.90
40822;DHT22;26542;50.836;5.356;2022-10-20T00:48:41;12.10;99.90
40822;DHT22;26542;50.836;5.356;2022-10-20T00:51:08;12.00;99.90
40822;DHT22;26542;50.836;5.356;2022-10-20T00:53:36;11.90;99.90
40822;DHT22;26542;50.836;5.356;2022-10-20T00:56:01;11.90;99.90
40822;DHT22;26542;50.836;5.356;2022-10-20T00:58:27;12.00;99.90
40822;DHT22;26542;50.836;5.356;2022-10-20T01:00:56;12.00;99.90
40822;DHT22;26542;50.836;5.356;2022-10-20T01:03:26;12.10;99.90
40822;DHT22;26542;50.836;5.356;2022-10-20T01:05:52;12.00;99.90
40822;DHT22;26542;50.836;5.356;2022-10-20T01:08:18;12.10;99.90
40822;DHT22;26542;50.836;5.356;2022-10-20T01:13:55;11.90;99.90
40822;DHT22;26542;50.836;5.356;2022-10-20T01:22:12;11.90;99.90
40822;DHT22;26542;50.836;5.356;2022-10-20T01:24:50;11.90;99.90
40822;DHT22;26542;50.836;5.356;2022-10-20T01:27:41;11.90;99.90
40822;DHT22;26542;50.836;5.356;2022-10-20T01:30:16;11.90;99.90
40822;DHT22;26542;50.836;5.356;2022-10-20T01:35:47;11.80;99.90
40822;DHT22;26542;50.836;5.356;2022-10-20T01:38:49;11.90;99.90
40822;DHT22;26542;50.836;5.356;2022-10-20T01:43:44;11.90;99.90
40822;DHT22;26542;50.836;5.356;2022-10-20T01:46:11;11.90;99.90
40822;DHT22;26542;50.836;5.356;2022-10-20T01:48:38;12.00;99.90
40822;DHT22;26542;50.836;5.356;2022-10-20T01:51:05;12.20;99.90
40822;DHT22;26542;50.836;5.356;2022-10-20T01:53:31;12.20;99.90
40822;DHT22;26542;50.836;5.356;2022-10-20T01:55:58;12.20;99.90
40822;DHT22;26542;50.836;5.356;2022-10-20T02:00:58;12.10;99.90
40822;DHT22;26542;50.836;5.356;2022-10-20T02:03:52;12.10;99.90
40822;DHT22;26542;50.836;5.356;2022-10-20T02:09:30;12.00;99.90
40822;DHT22;26542;50.836;5.356;2022-10-20T02:12:06;12.00;99.90
40822;DHT22;26542;50.836;5.356;2022-10-20T02:14:35;12.10;99.90
40822;DHT22;26542;50.836;5.356;2022-10-20T02:17:05;12.10;99.90
40822;DHT22;26542;50.836;5.356;2022-10-20T02:19:39;12.10;99.90
40822;DHT22;26542;50.836;5.356;2022-10-20T02:22:07;12.10;99.90
40822;DHT22;26542;50.836;5.356;2022-10-20T02:24:38;12.00;99.90
40822;DHT22;26542;50.836;5.356;2022-10-20T02:27:14;12.10;99.90
40822;DHT22;26542;50.836;5.356;2022-10-20T02:29:46;12.20;99.90
40822;DHT22;26542;50.836;5.356;2022-10-20T02:32:14;12.20;99.90
40822;DHT22;26542;50.836;5.356;2022-10-20T02:34:41;12.30;99.90
40822;DHT22;26542;50.836;5.356;2022-10-20T02:37:06;12.20;99.90
40822;DHT22;26542;50.836;5.356;2022-10-20T02:39:32;12.20;99.90
40822;DHT22;26542;50.836;5.356;2022-10-20T02:41:58;12.20;99.90
40822;DHT22;26542;50.836;5.356;2022-10-20T02:44:24;12.20;99.90
40822;DHT22;26542;50.836;5.356;2022-10-20T02:46:50;12.30;99.90
40822;DHT22;26542;50.836;5.356;2022-10-20T02:49:16;12.30;99.90
40822;DHT22;26542;50.836;5.356;2022-10-20T02:51:41;12.30;99.90
40822;DHT22;26542;50.836;5.356;2022-10-20T02:54:07;12.50;99.90
40822;DHT22;26542;50.836;5.356;2022-10-20T02:56:33;12.50;99.90
40822;DHT22;26542;50.836;5.356;2022-10-20T02:58:58;12.40;99.90
40822;DHT22;26542;50.836;5.356;2022-10-20T03:01:24;12.40;99.90
40822;DHT22;26542;50.836;5.356;2022-10-20T03:03:50;12.40;99.90
40822;DHT22;26542;50.836;5.356;2022-10-20T03:06:16;12.40;99.90
40822;DHT22;26542;50.836;5.356;2022-10-20T03:08:42;12.40;99.90
40822;DHT22;26542;50.836;5.356;2022-10-20T03:11:08;12.40;99.90
40822;DHT22;26542;50.836;5.356;2022-10-20T03:13:34;12.40;99.90
40822;DHT22;26542;50.836;5.356;2022-10-20T03:16:00;12.50;99.90
40822;DHT22;26542;50.836;5.356;2022-10-20T03:18:26;12.60;99.90
40822;DHT22;26542;50.836;5.356;2022-10-20T03:20:52;12.60;99.90
40822;DHT22;26542;50.836;5.356;2022-10-20T03:23:18;12.60;99.90
40822;DHT22;26542;50.836;5.356;2022-10-20T03:25:44;12.60;99.90
40822;DHT22;26542;50.836;5.356;2022-10-20T03:28:10;12.70;99.90
40822;DHT22;26542;50.836;5.356;2022-10-20T03:30:36;12.60;99.90
40822;DHT22;26542;50.836;5.356;2022-10-20T03:33:02;12.70;99.90
40822;DHT22;26542;50.836;5.356;2022-10-20T03:35:28;12.70;99.90
40822;DHT22;26542;50.836;5.356;2022-10-20T03:37:53;12.70;99.90
40822;DHT22;26542;50.836;5.356;2022-10-20T03:40:19;12.70;99.90
40822;DHT22;26542;50.836;5.356;2022-10-20T03:42:45;12.80;99.90
40822;DHT22;26542;50.836;5.356;2022-10-20T03:45:10;12.80;99.90
40822;DHT22;26542;50.836;5.356;2022-10-20T03:47:36;12.80;99.90
40822;DHT22;26542;50.836;5.356;2022-10-20T03:50:02;12.70;99.90
40822;DHT22;26542;50.836;5.356;2022-10-20T03:52:28;12.70;99.90
40822;DHT22;26542;50.836;5.356;2022-10-20T03:54:54;12.70;99.90
40822;DHT22;26542;50.836;5.356;2022-10-20T03:57:20;12.70;99.90
40822;DHT22;26542;50.836;5.356;2022-10-20T03:59:48;12.70;99.90
40822;DHT22;26542;50.836;5.356;2022-10-20T04:04:47;12.70;99.90
40822;DHT22;26542;50.836;5.356;2022-10-20T04:07:13;12.70;99.90
40822;DHT22;26542;50.836;5.356;2022-10-20T04:09:38;12.60;99.90
40822;DHT22;26542;50.836;5.356;2022-10-20T04:12:04;12.60;99.90
40822;DHT22;26542;50.836;5.356;2022-10-20T04:14:30;12.60;99.90
40822;DHT22;26542;50.836;5.356;2022-10-20T04:16:56;12.50;99.90
40822;DHT22;26542;50.836;5.356;2022-10-20T04:19:21;12.60;99.90
40822;DHT22;26542;50.836;5.356;2022-10-20T04:21:47;12.50;99.90
40822;DHT22;26542;50.836;5.356;2022-10-20T04:24:12;12.60;99.90
40822;DHT22;26542;50.836;5.356;2022-10-20T04:26:38;12.50;99.90
40822;DHT22;26542;50.836;5.356;2022-10-20T04:29:04;12.50;99.90
40822;DHT22;26542;50.836;5.356;2022-10-20T04:31:29;12.50;99.90
40822;DHT22;26542;50.836;5.356;2022-10-20T04:33:55;12.70;99.90
40822;DHT22;26542;50.836;5.356;2022-10-20T04:36:21;12.70;99.90
40822;DHT22;26542;50.836;5.356;2022-10-20T04:38:46;12.60;99.90
40822;DHT22;26542;50.836;5.356;2022-10-20T04:41:12;12.60;99.90
40822;DHT22;26542;50.836;5.356;2022-10-20T04:43:38;12.50;99.90
40822;DHT22;26542;50.836;5.356;2022-10-20T04:46:05;12.50;99.90
40822;DHT22;26542;50.836;5.356;2022-10-20T04:48:31;12.50;99.90
40822;DHT22;26542;50.836;5.356;2022-10-20T04:51:05;12.50;99.90
40822;DHT22;26542;50.836;5.356;2022-10-20T04:53:32;12.40;99.90
40822;DHT22;26542;50.836;5.356;2022-10-20T04:55:58;12.50;99.90
40822;DHT22;26542;50.836;5.356;2022-10-20T04:58:24;12.40;99.90
40822;DHT22;26542;50.836;5.356;2022-10-20T05:00:50;12.50;99.90
40822;DHT22;26542;50.836;5.356;2022-10-20T05:03:16;12.50;99.90
40822;DHT22;26542;50.836;5.356;2022-10-20T05:05:44;12.60;99.90
40822;DHT22;26542;50.836;5.356;2022-10-20T05:08:10;12.60;99.90
40822;DHT22;26542;50.836;5.356;2022-10-20T05:10:35;12.50;99.90
40822;DHT22;26542;50.836;5.356;2022-10-20T05:13:04;12.50;99.90
40822;DHT22;26542;50.836;5.356;2022-10-20T05:15:29;12.50;99.90
40822;DHT22;26542;50.836;5.356;2022-10-20T05:17:56;12.40;99.90
40822;DHT22;26542;50.836;5.356;2022-10-20T05:20:22;12.40;99.90
40822;DHT22;26542;50.836;5.356;2022-10-20T05:22:50;12.40;99.90
40822;DHT22;26542;50.836;5.356;2022-10-20T05:25:19;12.40;99.90
40822;DHT22;26542;50.836;5.356;2022-10-20T05:27:44;12.40;99.90
40822;DHT22;26542;50.836;5.356;2022-10-20T05:30:10;12.40;99.90
40822;DHT22;26542;50.836;5.356;2022-10-20T05:32:36;12.40;99.90
40822;DHT22;26542;50.836;5.356;2022-10-20T05:35:02;12.40;99.90
40822;DHT22;26542;50.836;5.356;2022-10-20T05:37:27;12.40;99.90
40822;DHT22;26542;50.836;5.356;2022-10-20T05:39:53;12.30;99.90
40822;DHT22;26542;50.836;5.356;2022-10-20T05:42:19;12.20;99.90
40822;DHT22;26542;50.836;5.356;2022-10-20T05:44:44;12.30;99.90
40822;DHT22;26542;50.836;5.356;2022-10-20T05:47:10;12.30;99.90
40822;DHT22;26542;50.836;5.356;2022-10-20T05:49:36;12.30;99.90
40822;DHT22;26542;50.836;5.356;2022-10-20T05:52:02;12.20;99.90
40822;DHT22;26542;50.836;5.356;2022-10-20T05:54:27;12.40;99.90
40822;DHT22;26542;50.836;5.356;2022-10-20T05:56:53;12.40;99.90
40822;DHT22;26542;50.836;5.356;2022-10-20T05:59:19;12.30;99.90
40822;DHT22;26542;50.836;5.356;2022-10-20T06:01:44;12.30;99.90
40822;DHT22;26542;50.836;5.356;2022-10-20T06:04:15;12.30;99.90
40822;DHT22;26542;50.836;5.356;2022-10-20T06:06:41;12.30;99.90
40822;DHT22;26542;50.836;5.356;2022-10-20T06:09:09;12.30;99.90
40822;DHT22;26542;50.836;5.356;2022-10-20T06:11:36;12.30;99.90
40822;DHT22;26542;50.836;5.356;2022-10-20T06:14:02;12.20;99.90
40822;DHT22;26542;50.836;5.356;2022-10-20T06:16:28;12.30;99.90
40822;DHT22;26542;50.836;5.356;2022-10-20T06:18:56;12.20;99.90
40822;DHT22;26542;50.836;5.356;2022-10-20T06:21:24;12.10;99.90
40822;DHT22;26542;50.836;5.356;2022-10-20T06:23:51;12.20;99.90
40822;DHT22;26542;50.836;5.356;2022-10-20T06:26:24;12.20;99.90
40822;DHT22;26542;50.836;5.356;2022-10-20T06:28:54;12.10;99.90
40822;DHT22;26542;50.836;5.356;2022-10-20T06:31:22;12.20;99.90
40822;DHT22;26542;50.836;5.356;2022-10-20T06:33:50;12.20;99.90
40822;DHT22;26542;50.836;5.356;2022-10-20T06:36:19;12.20;99.90
40822;DHT22;26542;50.836;5.356;2022-10-20T06:38:46;12.20;99.90
40822;DHT22;26542;50.836;5.356;2022-10-20T06:41:14;12.20;99.90
40822;DHT22;26542;50.836;5.356;2022-10-20T06:43:41;12.20;99.90
40822;DHT22;26542;50.836;5.356;2022-10-20T06:46:09;12.20;99.90
40822;DHT22;26542;50.836;5.356;2022-10-20T06:48:35;12.20;99.90
40822;DHT22;26542;50.836;5.356;2022-10-20T06:51:20;12.30;99.90
40822;DHT22;26542;50.836;5.356;2022-10-20T06:53:47;12.30;99.90
40822;DHT22;26542;50.836;5.356;2022-10-20T06:56:16;12.40;99.90
40822;DHT22;26542;50.836;5.356;2022-10-20T06:58:43;12.40;99.90
40822;DHT22;26542;50.836;5.356;2022-10-20T07:01:20;12.40;99.90
40822;DHT22;26542;50.836;5.356;2022-10-20T07:03:48;12.60;99.90
40822;DHT22;26542;50.836;5.356;2022-10-20T07:06:20;12.70;99.90
40822;DHT22;26542;50.836;5.356;2022-10-20T07:08:46;12.80;99.90
40822;DHT22;26542;50.836;5.356;2022-10-20T07:11:18;13.00;99.90
40822;DHT22;26542;50.836;5.356;2022-10-20T07:13:44;13.10;99.90
40822;DHT22;26542;50.836;5.356;2022-10-20T07:16:13;13.10;99.90
40822;DHT22;26542;50.836;5.356;2022-10-20T07:18:40;13.10;99.90
40822;DHT22;26542;50.836;5.356;2022-10-20T07:21:11;13.20;99.90
40822;DHT22;26542;50.836;5.356;2022-10-20T07:23:37;13.20;99.90
40822;DHT22;26542;50.836;5.356;2022-10-20T07:26:09;13.30;99.90
40822;DHT22;26542;50.836;5.356;2022-10-20T07:28:40;13.30;99.90
40822;DHT22;26542;50.836;5.356;2022-10-20T07:34:15;13.50;99.90
40822;DHT22;26542;50.836;5.356;2022-10-20T07:36:46;13.60;99.90
40822;DHT22;26542;50.836;5.356;2022-10-20T07:39:30;13.70;99.90
40822;DHT22;26542;50.836;5.356;2022-10-20T07:42:00;13.70;99.90
40822;DHT22;26542;50.836;5.356;2022-10-20T07:44:29;13.70;99.90
40822;DHT22;26542;50.836;5.356;2022-10-20T07:46:54;13.80;99.90
40822;DHT22;26542;50.836;5.356;2022-10-20T07:49:20;13.80;99.90
40822;DHT22;26542;50.836;5.356;2022-10-20T07:51:48;13.90;99.90
40822;DHT22;26542;50.836;5.356;2022-10-20T07:54:14;14.10;99.90
40822;DHT22;26542;50.836;5.356;2022-10-20T07:56:41;14.10;99.90
40822;DHT22;26542;50.836;5.356;2022-10-20T07:59:08;14.20;99.90
40822;DHT22;26542;50.836;5.356;2022-10-20T08:01:35;14.20;99.90
40822;DHT22;26542;50.836;5.356;2022-10-20T08:04:01;14.40;99.90
40822;DHT22;26542;50.836;5.356;2022-10-20T08:06:27;14.50;99.90
40822;DHT22;26542;50.836;5.356;2022-10-20T08:08:55;14.50;99.90
40822;DHT22;26542;50.836;5.356;2022-10-20T08:11:21;14.60;99.90
40822;DHT22;26542;50.836;5.356;2022-10-20T08:13:47;14.80;99.90
40822;DHT22;26542;50.836;5.356;2022-10-20T08:16:13;14.90;99.90
40822;DHT22;26542;50.836;5.356;2022-10-20T08:18:40;15.10;99.90
40822;DHT22;26542;50.836;5.356;2022-10-20T08:23:38;15.40;99.90
40822;DHT22;26542;50.836;5.356;2022-10-20T08:26:07;15.50;99.90
40822;DHT22;26542;50.836;5.356;2022-10-20T08:28:33;15.60;99.90
40822;DHT22;26542;50.836;5.356;2022-10-20T08:31:03;15.70;99.90
40822;DHT22;26542;50.836;5.356;2022-10-20T08:33:30;15.80;99.90
40822;DHT22;26542;50.836;5.356;2022-10-20T08:36:01;15.80;99.90
40822;DHT22;26542;50.836;5.356;2022-10-20T08:38:27;15.90;99.90
40822;DHT22;26542;50.836;5.356;2022-10-20T08:40:53;16.00;99.90
40822;DHT22;26542;50.836;5.356;2022-10-20T08:43:19;16.10;99.90
40822;DHT22;26542;50.836;5.356;2022-10-20T08:45:45;16.20;99.90
40822;DHT22;26542;50.836;5.356;2022-10-20T08:48:26;16.20;99.90
40822;DHT22;26542;50.836;5.356;2022-10-20T08:50:53;16.20;99.90
40822;DHT22;26542;50.836;5.356;2022-10-20T08:53:21;16.30;99.90
40822;DHT22;26542;50.836;5.356;2022-10-20T08:55:48;16.40;99.90
40822;DHT22;26542;50.836;5.356;2022-10-20T08:58:18;16.50;99.90
40822;DHT22;26542;50.836;5.356;2022-10-20T09:00:45;16.50;99.90
40822;DHT22;26542;50.836;5.356;2022-10-20T09:03:28;16.50;99.90
40822;DHT22;26542;50.836;5.356;2022-10-20T09:06:13;16.50;99.90
40822;DHT22;26542;50.836;5.356;2022-10-20T09:08:39;16.50;99.90
40822;DHT22;26542;50.836;5.356;2022-10-20T09:11:07;16.60;99.90
40822;DHT22;26542;50.836;5.356;2022-10-20T09:13:35;16.60;99.90
40822;DHT22;26542;50.836;5.356;2022-10-20T09:16:13;16.50;99.90
40822;DHT22;26542;50.836;5.356;2022-10-20T09:18:43;16.70;99.90
40822;DHT22;26542;50.836;5.356;2022-10-20T09:21:17;16.70;99.90
40822;DHT22;26542;50.836;5.356;2022-10-20T09:23:48;16.80;99.90
40822;DHT22;26542;50.836;5.356;2022-10-20T09:26:33;16.90;99.90
40822;DHT22;26542;50.836;5.356;2022-10-20T09:29:13;16.90;99.90
40822;DHT22;26542;50.836;5.356;2022-10-20T09:31:42;16.90;99.90
40822;DHT22;26542;50.836;5.356;2022-10-20T09:34:31;16.80;99.90
40822;DHT22;26542;50.836;5.356;2022-10-20T09:37:17;16.80;99.90
40822;DHT22;26542;50.836;5.356;2022-10-20T09:42:15;16.90;99.90
40822;DHT22;26542;50.836;5.356;2022-10-20T09:44:51;16.90;99.90
40822;DHT22;26542;50.836;5.356;2022-10-20T09:47:18;16.80;99.90
40822;DHT22;26542;50.836;5.356;2022-10-20T09:49:45;16.70;99.90
40822;DHT22;26542;50.836;5.356;2022-10-20T09:52:25;16.70;99.90
40822;DHT22;26542;50.836;5.356;2022-10-20T09:55:03;16.60;99.90
40822;DHT22;26542;50.836;5.356;2022-10-20T09:57:31;16.70;99.90
40822;DHT22;26542;50.836;5.356;2022-10-20T09:59:57;16.70;99.90
40822;DHT22;26542;50.836;5.356;2022-10-20T10:02:28;16.70;99.90
40822;DHT22;26542;50.836;5.356;2022-10-20T10:05:12;16.80;99.90
40822;DHT22;26542;50.836;5.356;2022-10-20T10:07:38;16.80;99.90
40822;DHT22;26542;50.836;5.356;2022-10-20T10:10:23;16.70;99.90
40822;DHT22;26542;50.836;5.356;2022-10-20T10:12:53;16.70;99.90
40822;DHT22;26542;50.836;5.356;2022-10-20T10:15:27;16.80;99.90
40822;DHT22;26542;50.836;5.356;2022-10-20T10:17:53;16.80;99.90
40822;DHT22;26542;50.836;5.356;2022-10-20T10:22:51;16.80;99.90
40822;DHT22;26542;50.836;5.356;2022-10-20T10:25:26;16.70;99.90
40822;DHT22;26542;50.836;5.356;2022-10-20T10:28:00;16.70;99.90
40822;DHT22;26542;50.836;5.356;2022-10-20T10:30:36;16.80;99.90
40822;DHT22;26542;50.836;5.356;2022-10-20T10:33:25;16.80;99.90
40822;DHT22;26542;50.836;5.356;2022-10-20T10:35:51;16.80;99.90
40822;DHT22;26542;50.836;5.356;2022-10-20T10:38:17;16.80;99.90
40822;DHT22;26542;50.836;5.356;2022-10-20T10:41:00;16.80;99.90
40822;DHT22;26542;50.836;5.356;2022-10-20T10:46:18;16.80;99.90
40822;DHT22;26542;50.836;5.356;2022-10-20T10:51:43;16.80;99.90
40822;DHT22;26542;50.836;5.356;2022-10-20T10:57:47;16.90;99.90
40822;DHT22;26542;50.836;5.356;2022-10-20T11:00:45;16.80;99.90
40822;DHT22;26542;50.836;5.356;2022-10-20T11:27:49;17.60;99.90
40822;DHT22;26542;50.836;5.356;2022-10-20T11:30:19;17.90;99.90
40822;DHT22;26542;50.836;5.356;2022-10-20T11:33:03;18.10;99.90
40822;DHT22;26542;50.836;5.356;2022-10-20T11:35:44;18.40;99.90
40822;DHT22;26542;50.836;5.356;2022-10-20T11:38:13;18.70;99.90
40822;DHT22;26542;50.836;5.356;2022-10-20T11:40:46;18.80;99.90
40822;DHT22;26542;50.836;5.356;2022-10-20T11:43:32;18.70;99.90
40822;DHT22;26542;50.836;5.356;2022-10-20T11:46:13;18.80;99.90
40822;DHT22;26542;50.836;5.356;2022-10-20T11:48:50;19.00;99.90
40822;DHT22;26542;50.836;5.356;2022-10-20T11:57:31;19.30;99.90
40822;DHT22;26542;50.836;5.356;2022-10-20T12:00:12;19.40;99.90
40822;DHT22;26542;50.836;5.356;2022-10-20T12:56:44;20.80;99.90
40822;DHT22;26542;50.836;5.356;2022-10-20T12:59:36;20.80;99.90
40822;DHT22;26542;50.836;5.356;2022-10-20T13:02:48;21.00;99.90
40822;DHT22;26542;50.836;5.356;2022-10-20T13:09:29;21.20;99.90
40822;DHT22;26542;50.836;5.356;2022-10-20T13:11:57;21.20;99.90
40822;DHT22;26542;50.836;5.356;2022-10-20T13:17:41;21.40;99.90
40822;DHT22;26542;50.836;5.356;2022-10-20T13:20:29;21.60;99.90
40822;DHT22;26542;50.836;5.356;2022-10-20T13:23:09;21.80;99.90
40822;DHT22;26542;50.836;5.356;2022-10-20T13:25:47;21.90;99.90
40822;DHT22;26542;50.836;5.356;2022-10-20T13:36:11;21.60;99.90
40822;DHT22;26542;50.836;5.356;2022-10-20T13:38:57;21.70;99.90
40822;DHT22;26542;50.836;5.356;2022-10-20T13:41:42;21.80;99.90
40822;DHT22;26542;50.836;5.356;2022-10-20T13:45:00;21.90;99.90
40822;DHT22;26542;50.836;5.356;2022-10-20T13:47:24;21.90;99.90
40822;DHT22;26542;50.836;5.356;2022-10-20T13:50:06;21.90;99.90
40822;DHT22;26542;50.836;5.356;2022-10-20T13:52:36;22.00;99.90
40822;DHT22;26542;50.836;5.356;2022-10-20T13:55:04;22.10;99.90
40822;DHT22;26542;50.836;5.356;2022-10-20T13:57:32;22.20;99.90
40822;DHT22;26542;50.836;5.356;2022-10-20T14:00:13;22.20;99.90
40822;DHT22;26542;50.836;5.356;2022-10-20T14:02:40;22.20;99.90
40822;DHT22;26542;50.836;5.356;2022-10-20T14:05:19;22.30;99.90
40822;DHT22;26542;50.836;5.356;2022-10-20T14:07:46;22.40;99.90
40822;DHT22;26542;50.836;5.356;2022-10-20T14:10:25;22.50;99.90
40822;DHT22;26542;50.836;5.356;2022-10-20T14:12:53;22.30;99.90
40822;DHT22;26542;50.836;5.356;2022-10-20T14:15:29;22.30;99.90
40822;DHT22;26542;50.836;5.356;2022-10-20T14:17:59;22.40;99.90
40822;DHT22;26542;50.836;5.356;2022-10-20T14:20:27;22.50;99.90
40822;DHT22;26542;50.836;5.356;2022-10-20T14:22:54;22.40;99.90
40822;DHT22;26542;50.836;5.356;2022-10-20T14:25:22;22.40;99.90
40822;DHT22;26542;50.836;5.356;2022-10-20T14:27:48;22.50;99.90
40822;DHT22;26542;50.836;5.356;2022-10-20T14:30:16;22.60;99.90
40822;DHT22;26542;50.836;5.356;2022-10-20T14:32:44;22.60;99.90
40822;DHT22;26542;50.836;5.356;2022-10-20T14:35:29;22.70;99.90
40822;DHT22;26542;50.836;5.356;2022-10-20T14:38:01;22.70;99.90
40822;DHT22;26542;50.836;5.356;2022-10-20T14:40:32;22.80;99.70
40822;DHT22;26542;50.836;5.356;2022-10-20T14:45:27;22.80;99.70
40822;DHT22;26542;50.836;5.356;2022-10-20T14:47:55;22.80;99.60
40822;DHT22;26542;50.836;5.356;2022-10-20T14:52:49;22.90;99.90
40822;DHT22;26542;50.836;5.356;2022-10-20T14:55:35;23.10;99.90
40822;DHT22;26542;50.836;5.356;2022-10-20T14:58:02;23.20;99.90
40822;DHT22;26542;50.836;5.356;2022-10-20T15:00:33;23.20;99.90
40822;DHT22;26542;50.836;5.356;2022-10-20T15:03:02;23.30;99.50
40822;DHT22;26542;50.836;5.356;2022-10-20T15:05:41;23.40;99.00
40822;DHT22;26542;50.836;5.356;2022-10-20T15:10:46;23.40;98.80
40822;DHT22;26542;50.836;5.356;2022-10-20T15:15:49;23.50;98.70
40822;DHT22;26542;50.836;5.356;2022-10-20T15:18:17;23.50;99.20
40822;DHT22;26542;50.836;5.356;2022-10-20T15:20:48;23.60;98.80
40822;DHT22;26542;50.836;5.356;2022-10-20T15:23:22;23.60;98.80
40822;DHT22;26542;50.836;5.356;2022-10-20T15:28:54;23.40;98.60
40822;DHT22;26542;50.836;5.356;2022-10-20T15:31:21;23.30;98.70
40822;DHT22;26542;50.836;5.356;2022-10-20T15:33:48;23.10;98.90
40822;DHT22;26542;50.836;5.356;2022-10-20T15:36:25;23.10;98.60
40822;DHT22;26542;50.836;5.356;2022-10-20T15:38:54;23.10;98.90
40822;DHT22;26542;50.836;5.356;2022-10-20T15:41:23;23.00;98.90
40822;DHT22;26542;50.836;5.356;2022-10-20T15:43:50;22.80;99.00
40822;DHT22;26542;50.836;5.356;2022-10-20T15:46:16;22.70;99.40
40822;DHT22;26542;50.836;5.356;2022-10-20T15:48:43;22.70;99.40
40822;DHT22;26542;50.836;5.356;2022-10-20T15:51:39;22.60;99.70
40822;DHT22;26542;50.836;5.356;2022-10-20T15:54:05;22.50;99.60
40822;DHT22;26542;50.836;5.356;2022-10-20T15:56:32;22.30;99.90
40822;DHT22;26542;50.836;5.356;2022-10-20T15:58:59;22.20;99.90
40822;DHT22;26542;50.836;5.356;2022-10-20T16:01:25;22.20;99.90
40822;DHT22;26542;50.836;5.356;2022-10-20T16:03:52;22.20;99.90
40822;DHT22;26542;50.836;5.356;2022-10-20T16:06:18;22.10;99.90
40822;DHT22;26542;50.836;5.356;2022-10-20T16:08:46;22.10;99.90
40822;DHT22;26542;50.836;5.356;2022-10-20T16:11:13;22.10;99.90
40822;DHT22;26542;50.836;5.356;2022-10-20T16:13:39;21.90;99.90
40822;DHT22;26542;50.836;5.356;2022-10-20T16:16:07;21.80;99.90
40822;DHT22;26542;50.836;5.356;2022-10-20T16:18:33;21.70;99.90
40822;DHT22;26542;50.836;5.356;2022-10-20T16:20:59;21.60;99.90
40822;DHT22;26542;50.836;5.356;2022-10-20T16:23:25;21.50;99.90
40822;DHT22;26542;50.836;5.356;2022-10-20T16:25:51;21.60;99.90
40822;DHT22;26542;50.836;5.356;2022-10-20T16:28:17;21.40;99.90
40822;DHT22;26542;50.836;5.356;2022-10-20T16:30:43;21.20;99.90
40822;DHT22;26542;50.836;5.356;2022-10-20T16:33:09;21.10;99.90
40822;DHT22;26542;50.836;5.356;2022-10-20T16:35:43;21.10;99.90
40822;DHT22;26542;50.836;5.356;2022-10-20T16:38:09;20.90;99.90
40822;DHT22;26542;50.836;5.356;2022-10-20T16:40:35;20.80;99.90
40822;DHT22;26542;50.836;5.356;2022-10-20T16:43:01;20.70;99.90
40822;DHT22;26542;50.836;5.356;2022-10-20T16:45:27;20.70;99.90
40822;DHT22;26542;50.836;5.356;2022-10-20T16:47:52;20.60;99.90
40822;DHT22;26542;50.836;5.356;2022-10-20T16:50:18;20.60;99.90
40822;DHT22;26542;50.836;5.356;2022-10-20T16:52:44;20.60;99.90
40822;DHT22;26542;50.836;5.356;2022-10-20T16:55:10;20.50;99.90
40822;DHT22;26542;50.836;5.356;2022-10-20T16:57:36;20.30;99.90
40822;DHT22;26542;50.836;5.356;2022-10-20T17:00:06;20.10;99.90
40822;DHT22;26542;50.836;5.356;2022-10-20T17:02:36;20.00;99.90
40822;DHT22;26542;50.836;5.356;2022-10-20T17:05:02;20.00;99.90
40822;DHT22;26542;50.836;5.356;2022-10-20T17:07:28;19.90;99.90
40822;DHT22;26542;50.836;5.356;2022-10-20T17:09:53;19.80;99.90
40822;DHT22;26542;50.836;5.356;2022-10-20T17:12:19;19.70;99.90
40822;DHT22;26542;50.836;5.356;2022-10-20T17:14:45;19.60;99.90
40822;DHT22;26542;50.836;5.356;2022-10-20T17:17:11;19.70;99.90
40822;DHT22;26542;50.836;5.356;2022-10-20T17:19:37;19.60;99.90
40822;DHT22;26542;50.836;5.356;2022-10-20T17:22:05;19.50;99.90
40822;DHT22;26542;50.836;5.356;2022-10-20T17:24:31;19.40;99.90
40822;DHT22;26542;50.836;5.356;2022-10-20T17:26:56;19.30;99.90
40822;DHT22;26542;50.836;5.356;2022-10-20T17:29:22;19.30;99.90
40822;DHT22;26542;50.836;5.356;2022-10-20T17:31:48;19.40;99.90
40822;DHT22;26542;50.836;5.356;2022-10-20T17:34:13;19.40;99.90
40822;DHT22;26542;50.836;5.356;2022-10-20T17:36:39;19.30;99.90
40822;DHT22;26542;50.836;5.356;2022-10-20T17:39:06;19.30;99.90
40822;DHT22;26542;50.836;5.356;2022-10-20T17:41:34;19.20;99.90
40822;DHT22;26542;50.836;5.356;2022-10-20T17:44:00;19.30;99.90
40822;DHT22;26542;50.836;5.356;2022-10-20T17:46:26;19.20;99.90
40822;DHT22;26542;50.836;5.356;2022-10-20T17:48:52;19.20;99.90
40822;DHT22;26542;50.836;5.356;2022-10-20T17:51:27;19.10;99.90
40822;DHT22;26542;50.836;5.356;2022-10-20T17:53:54;19.10;99.90
40822;DHT22;26542;50.836;5.356;2022-10-20T17:56:40;19.10;99.90
40822;DHT22;26542;50.836;5.356;2022-10-20T17:59:06;19.10;99.90
40822;DHT22;26542;50.836;5.356;2022-10-20T18:01:34;19.10;99.90
40822;DHT22;26542;50.836;5.356;2022-10-20T18:04:03;19.10;99.90
40822;DHT22;26542;50.836;5.356;2022-10-20T18:06:30;19.10;99.90
40822;DHT22;26542;50.836;5.356;2022-10-20T18:08:58;19.20;99.90
40822;DHT22;26542;50.836;5.356;2022-10-20T18:11:27;19.10;99.90
40822;DHT22;26542;50.836;5.356;2022-10-20T18:13:55;19.10;99.90
40822;DHT22;26542;50.836;5.356;2022-10-20T18:16:22;19.20;99.90
40822;DHT22;26542;50.836;5.356;2022-10-20T18:18:48;19.20;99.90
40822;DHT22;26542;50.836;5.356;2022-10-20T18:21:15;19.10;99.90